sensor_id;sensor_type;location;lat;lon;timestamp;P1;durP1;ratioP1;P2;durP2;ratioP2
7375;SDS011;3728;42.266;24.944;2023-07-02T00:00:41;8.45;;;5.70;;
7375;SDS011;3728;42.266;24.944;2023-07-02T00:03:09;6.97;;;5.57;;
7375;SDS011;3728;42.266;24.944;2023-07-02T00:05:37;6.63;;;5.93;;
7375;SDS011;3728;42.266;24.944;2023-07-02T00:08:05;6.78;;;5.28;;
7375;SDS011;3728;42.266;24.944;2023-07-02T00:10:34;8.98;;;5.75;;
7375;SDS011;3728;42.266;24.944;2023-07-02T00:13:02;7.95;;;5.88;;
7375;SDS011;3728;42.266;24.944;2023-07-02T00:15:30;10.23;;;5.63;;
7375;SDS011;3728;42.266;24.944;2023-07-02T00:17:58;12.98;;;5.85;;
7375;SDS011;3728;42.266;24.944;2023-07-02T00:20:26;8.18;;;6.10;;
7375;SDS011;3728;42.266;24.944;2023-07-02T00:22:54;11.48;;;6.57;;
7375;SDS011;3728;42.266;24.944;2023-07-02T00:25:22;9.25;;;6.07;;
7375;SDS011;3728;42.266;24.944;2023-07-02T00:27:50;11.45;;;6.20;;
7375;SDS011;3728;42.266;24.944;2023-07-02T00:30:18;11.38;;;6.32;;
7375;SDS011;3728;42.266;24.944;2023-07-02T00:32:46;8.80;;;6.00;;
7375;SDS011;3728;42.266;24.944;2023-07-02T00:35:14;12.10;;;6.65;;
7375;SDS011;3728;42.266;24.944;2023-07-02T00:37:43;8.30;;;7.10;;
7375;SDS011;3728;42.266;24.944;2023-07-02T00:40:11;8.07;;;6.75;;
7375;SDS011;3728;42.266;24.944;2023-07-02T00:42:39;8.55;;;7.28;;
7375;SDS011;3728;42.266;24.944;2023-07-02T00:45:07;7.95;;;7.15;;
7375;SDS011;3728;42.266;24.944;2023-07-02T00:47:36;9.15;;;6.53;;
7375;SDS011;3728;42.266;24.944;2023-07-02T00:50:04;13.27;;;6.78;;
7375;SDS011;3728;42.266;24.944;2023-07-02T00:52:33;10.27;;;7.13;;
7375;SDS011;3728;42.266;24.944;2023-07-02T00:55:01;10.45;;;6.90;;
7375;SDS011;3728;42.266;24.944;2023-07-02T00:57:30;10.25;;;7.18;;
7375;SDS011;3728;42.266;24.944;2023-07-02T01:00:00;10.10;;;6.70;;
7375;SDS011;3728;42.266;24.944;2023-07-02T01:02:29;11.77;;;7.03;;
7375;SDS011;3728;42.266;24.944;2023-07-02T01:05:00;11.00;;;6.50;;
7375;SDS011;3728;42.266;24.944;2023-07-02T01:07:29;7.68;;;6.80;;
7375;SDS011;3728;42.266;24.944;2023-07-02T01:09:57;13.35;;;7.55;;
7375;SDS011;3728;42.266;24.944;2023-07-02T01:12:25;9.98;;;6.70;;
7375;SDS011;3728;42.266;24.944;2023-07-02T01:14:54;13.18;;;7.35;;
7375;SDS011;3728;42.266;24.944;2023-07-02T01:17:30;9.57;;;6.75;;
7375;SDS011;3728;42.266;24.944;2023-07-02T01:20:04;12.48;;;7.10;;
7375;SDS011;3728;42.266;24.944;2023-07-02T01:22:36;15.85;;;7.07;;
7375;SDS011;3728;42.266;24.944;2023-07-02T01:25:05;8.07;;;6.68;;
7375;SDS011;3728;42.266;24.944;2023-07-02T01:27:36;12.25;;;6.80;;
7375;SDS011;3728;42.266;24.944;2023-07-02T01:30:06;9.77;;;6.57;;
7375;SDS011;3728;42.266;24.944;2023-07-02T01:32:36;7.70;;;6.28;;
7375;SDS011;3728;42.266;24.944;2023-07-02T01:35:06;8.38;;;6.68;;
7375;SDS011;3728;42.266;24.944;2023-07-02T01:37:35;9.88;;;7.32;;
7375;SDS011;3728;42.266;24.944;2023-07-02T01:40:05;10.40;;;6.25;;
7375;SDS011;3728;42.266;24.944;2023-07-02T01:42:37;8.55;;;6.90;;
7375;SDS011;3728;42.266;24.944;2023-07-02T01:45:06;10.23;;;7.00;;
7375;SDS011;3728;42.266;24.944;2023-07-02T01:47:34;9.43;;;6.85;;
7375;SDS011;3728;42.266;24.944;2023-07-02T01:50:03;9.20;;;6.68;;
7375;SDS011;3728;42.266;24.944;2023-07-02T01:52:33;10.65;;;7.03;;
7375;SDS011;3728;42.266;24.944;2023-07-02T01:55:01;7.50;;;6.75;;
7375;SDS011;3728;42.266;24.944;2023-07-02T01:57:30;12.00;;;7.55;;
7375;SDS011;3728;42.266;24.944;2023-07-02T01:59:58;17.90;;;8.55;;
7375;SDS011;3728;42.266;24.944;2023-07-02T02:02:26;23.77;;;8.32;;
7375;SDS011;3728;42.266;24.944;2023-07-02T02:04:54;20.73;;;8.30;;
7375;SDS011;3728;42.266;24.944;2023-07-02T02:07:23;22.45;;;7.95;;
7375;SDS011;3728;42.266;24.944;2023-07-02T02:09:52;19.08;;;7.97;;
7375;SDS011;3728;42.266;24.944;2023-07-02T02:12:20;15.57;;;7.93;;
7375;SDS011;3728;42.266;24.944;2023-07-02T02:14:48;16.08;;;8.02;;
7375;SDS011;3728;42.266;24.944;2023-07-02T02:17:19;15.48;;;8.13;;
7375;SDS011;3728;42.266;24.944;2023-07-02T02:19:47;22.02;;;7.63;;
7375;SDS011;3728;42.266;24.944;2023-07-02T02:22:15;23.30;;;8.02;;
7375;SDS011;3728;42.266;24.944;2023-07-02T02:24:43;16.38;;;7.97;;
7375;SDS011;3728;42.266;24.944;2023-07-02T02:27:11;18.70;;;8.52;;
7375;SDS011;3728;42.266;24.944;2023-07-02T02:29:39;19.55;;;7.75;;
7375;SDS011;3728;42.266;24.944;2023-07-02T02:32:08;23.40;;;8.32;;
7375;SDS011;3728;42.266;24.944;2023-07-02T02:34:37;18.35;;;7.72;;
7375;SDS011;3728;42.266;24.944;2023-07-02T02:37:06;20.92;;;8.13;;
7375;SDS011;3728;42.266;24.944;2023-07-02T02:39:33;16.42;;;7.40;;
7375;SDS011;3728;42.266;24.944;2023-07-02T02:42:03;18.63;;;8.00;;
7375;SDS011;3728;42.266;24.944;2023-07-02T02:44:31;17.83;;;7.35;;
7375;SDS011;3728;42.266;24.944;2023-07-02T02:46:59;18.52;;;6.57;;
7375;SDS011;3728;42.266;24.944;2023-07-02T02:49:28;15.45;;;6.88;;
7375;SDS011;3728;42.266;24.944;2023-07-02T02:51:59;16.27;;;6.75;;
7375;SDS011;3728;42.266;24.944;2023-07-02T02:54:27;19.88;;;6.80;;
7375;SDS011;3728;42.266;24.944;2023-07-02T02:56:55;21.02;;;7.15;;
7375;SDS011;3728;42.266;24.944;2023-07-02T02:59:22;13.85;;;6.63;;
7375;SDS011;3728;42.266;24.944;2023-07-02T03:01:50;15.07;;;6.88;;
7375;SDS011;3728;42.266;24.944;2023-07-02T03:04:19;19.08;;;7.43;;
7375;SDS011;3728;42.266;24.944;2023-07-02T03:06:51;16.08;;;6.22;;
7375;SDS011;3728;42.266;24.944;2023-07-02T03:09:19;17.40;;;6.88;;
7375;SDS011;3728;42.266;24.944;2023-07-02T03:11:47;22.67;;;7.15;;
7375;SDS011;3728;42.266;24.944;2023-07-02T03:14:17;26.90;;;7.60;;
7375;SDS011;3728;42.266;24.944;2023-07-02T03:16:44;22.60;;;7.13;;
7375;SDS011;3728;42.266;24.944;2023-07-02T03:19:13;16.58;;;6.45;;
7375;SDS011;3728;42.266;24.944;2023-07-02T03:21:45;19.73;;;6.82;;
7375;SDS011;3728;42.266;24.944;2023-07-02T03:24:13;16.90;;;6.72;;
7375;SDS011;3728;42.266;24.944;2023-07-02T03:26:42;21.50;;;7.25;;
7375;SDS011;3728;42.266;24.944;2023-07-02T03:29:11;19.90;;;6.63;;
7375;SDS011;3728;42.266;24.944;2023-07-02T03:31:39;14.68;;;6.95;;
7375;SDS011;3728;42.266;24.944;2023-07-02T03:34:08;12.35;;;6.38;;
7375;SDS011;3728;42.266;24.944;2023-07-02T03:36:37;13.30;;;6.60;;
7375;SDS011;3728;42.266;24.944;2023-07-02T03:39:05;10.57;;;6.53;;
7375;SDS011;3728;42.266;24.944;2023-07-02T03:41:39;10.82;;;6.20;;
7375;SDS011;3728;42.266;24.944;2023-07-02T03:44:07;10.57;;;6.75;;
7375;SDS011;3728;42.266;24.944;2023-07-02T03:46:35;16.63;;;6.97;;
7375;SDS011;3728;42.266;24.944;2023-07-02T03:49:03;11.02;;;6.78;;
7375;SDS011;3728;42.266;24.944;2023-07-02T03:51:31;13.00;;;7.05;;
7375;SDS011;3728;42.266;24.944;2023-07-02T03:53:59;8.68;;;6.38;;
7375;SDS011;3728;42.266;24.944;2023-07-02T03:56:27;15.30;;;7.38;;
7375;SDS011;3728;42.266;24.944;2023-07-02T03:58:56;19.45;;;8.07;;
7375;SDS011;3728;42.266;24.944;2023-07-02T04:01:24;15.57;;;8.75;;
7375;SDS011;3728;42.266;24.944;2023-07-02T04:03:52;14.13;;;7.22;;
7375;SDS011;3728;42.266;24.944;2023-07-02T04:06:23;16.50;;;7.93;;
7375;SDS011;3728;42.266;24.944;2023-07-02T04:08:51;10.95;;;8.32;;
7375;SDS011;3728;42.266;24.944;2023-07-02T04:11:19;14.90;;;8.38;;
7375;SDS011;3728;42.266;24.944;2023-07-02T04:13:47;20.67;;;9.10;;
7375;SDS011;3728;42.266;24.944;2023-07-02T04:16:15;12.18;;;8.07;;
7375;SDS011;3728;42.266;24.944;2023-07-02T04:18:43;12.93;;;8.95;;
7375;SDS011;3728;42.266;24.944;2023-07-02T04:21:11;15.10;;;9.05;;
7375;SDS011;3728;42.266;24.944;2023-07-02T04:23:40;17.90;;;11.02;;
7375;SDS011;3728;42.266;24.944;2023-07-02T04:26:09;16.88;;;9.10;;
7375;SDS011;3728;42.266;24.944;2023-07-02T04:28:58;13.93;;;8.70;;
7375;SDS011;3728;42.266;24.944;2023-07-02T04:31:26;15.60;;;8.60;;
7375;SDS011;3728;42.266;24.944;2023-07-02T04:33:54;10.27;;;8.20;;
7375;SDS011;3728;42.266;24.944;2023-07-02T04:36:22;10.18;;;7.35;;
7375;SDS011;3728;42.266;24.944;2023-07-02T04:38:50;11.05;;;7.25;;
7375;SDS011;3728;42.266;24.944;2023-07-02T04:41:18;14.98;;;7.72;;
7375;SDS011;3728;42.266;24.944;2023-07-02T04:43:46;13.35;;;8.73;;
7375;SDS011;3728;42.266;24.944;2023-07-02T04:46:15;16.27;;;8.70;;
7375;SDS011;3728;42.266;24.944;2023-07-02T04:48:45;14.18;;;7.95;;
7375;SDS011;3728;42.266;24.944;2023-07-02T04:51:13;14.18;;;7.53;;
7375;SDS011;3728;42.266;24.944;2023-07-02T04:53:41;15.52;;;7.75;;
7375;SDS011;3728;42.266;24.944;2023-07-02T04:56:09;17.35;;;8.13;;
7375;SDS011;3728;42.266;24.944;2023-07-02T04:58:37;13.35;;;8.10;;
7375;SDS011;3728;42.266;24.944;2023-07-02T05:01:05;11.35;;;7.78;;
7375;SDS011;3728;42.266;24.944;2023-07-02T05:03:33;11.30;;;7.85;;
7375;SDS011;3728;42.266;24.944;2023-07-02T05:06:03;18.15;;;8.52;;
7375;SDS011;3728;42.266;24.944;2023-07-02T05:08:31;11.68;;;7.63;;
7375;SDS011;3728;42.266;24.944;2023-07-02T05:11:00;19.98;;;8.90;;
7375;SDS011;3728;42.266;24.944;2023-07-02T05:13:27;11.70;;;7.20;;
7375;SDS011;3728;42.266;24.944;2023-07-02T05:15:55;17.92;;;8.82;;
7375;SDS011;3728;42.266;24.944;2023-07-02T05:18:23;14.25;;;8.57;;
7375;SDS011;3728;42.266;24.944;2023-07-02T05:20:51;15.00;;;8.88;;
7375;SDS011;3728;42.266;24.944;2023-07-02T05:23:19;16.27;;;9.82;;
7375;SDS011;3728;42.266;24.944;2023-07-02T05:25:47;15.40;;;8.98;;
7375;SDS011;3728;42.266;24.944;2023-07-02T05:28:15;12.27;;;8.55;;
7375;SDS011;3728;42.266;24.944;2023-07-02T05:30:43;9.82;;;8.15;;
7375;SDS011;3728;42.266;24.944;2023-07-02T05:33:11;12.45;;;9.02;;
7375;SDS011;3728;42.266;24.944;2023-07-02T05:35:39;11.80;;;8.75;;
7375;SDS011;3728;42.266;24.944;2023-07-02T05:38:09;14.23;;;8.88;;
7375;SDS011;3728;42.266;24.944;2023-07-02T05:40:37;9.93;;;8.35;;
7375;SDS011;3728;42.266;24.944;2023-07-02T05:43:05;11.57;;;7.72;;
7375;SDS011;3728;42.266;24.944;2023-07-02T05:48:50;12.07;;;8.20;;
7375;SDS011;3728;42.266;24.944;2023-07-02T05:51:21;10.93;;;7.72;;
7375;SDS011;3728;42.266;24.944;2023-07-02T05:53:51;11.05;;;8.07;;
7375;SDS011;3728;42.266;24.944;2023-07-02T05:56:19;11.38;;;7.90;;
7375;SDS011;3728;42.266;24.944;2023-07-02T05:58:47;10.25;;;8.27;;
7375;SDS011;3728;42.266;24.944;2023-07-02T06:01:16;12.57;;;8.48;;
7375;SDS011;3728;42.266;24.944;2023-07-02T06:03:49;9.52;;;8.25;;
7375;SDS011;3728;42.266;24.944;2023-07-02T06:06:18;11.23;;;8.55;;
7375;SDS011;3728;42.266;24.944;2023-07-02T06:08:47;10.05;;;9.05;;
7375;SDS011;3728;42.266;24.944;2023-07-02T06:11:16;11.05;;;8.25;;
7375;SDS011;3728;42.266;24.944;2023-07-02T06:13:45;9.57;;;8.60;;
7375;SDS011;3728;42.266;24.944;2023-07-02T06:16:13;14.18;;;8.43;;
7375;SDS011;3728;42.266;24.944;2023-07-02T06:18:43;10.23;;;8.82;;
7375;SDS011;3728;42.266;24.944;2023-07-02T06:21:11;10.38;;;8.23;;
7375;SDS011;3728;42.266;24.944;2023-07-02T06:23:42;10.98;;;8.57;;
7375;SDS011;3728;42.266;24.944;2023-07-02T06:26:13;10.95;;;9.07;;
7375;SDS011;3728;42.266;24.944;2023-07-02T06:28:46;11.88;;;9.68;;
7375;SDS011;3728;42.266;24.944;2023-07-02T06:31:15;10.85;;;8.23;;
7375;SDS011;3728;42.266;24.944;2023-07-02T06:33:44;10.85;;;8.25;;
7375;SDS011;3728;42.266;24.944;2023-07-02T06:36:12;14.57;;;9.70;;
7375;SDS011;3728;42.266;24.944;2023-07-02T06:38:43;9.88;;;8.88;;
7375;SDS011;3728;42.266;24.944;2023-07-02T06:41:11;10.95;;;9.38;;
7375;SDS011;3728;42.266;24.944;2023-07-02T06:43:41;11.15;;;10.00;;
7375;SDS011;3728;42.266;24.944;2023-07-02T06:46:10;10.77;;;9.55;;
7375;SDS011;3728;42.266;24.944;2023-07-02T06:48:39;11.88;;;10.18;;
7375;SDS011;3728;42.266;24.944;2023-07-02T06:51:06;12.57;;;10.05;;
7375;SDS011;3728;42.266;24.944;2023-07-02T06:53:35;14.20;;;9.57;;
7375;SDS011;3728;42.266;24.944;2023-07-02T06:56:04;13.65;;;10.48;;
7375;SDS011;3728;42.266;24.944;2023-07-02T06:58:36;11.40;;;9.88;;
7375;SDS011;3728;42.266;24.944;2023-07-02T07:01:06;10.68;;;9.55;;
7375;SDS011;3728;42.266;24.944;2023-07-02T07:03:35;13.75;;;10.50;;
7375;SDS011;3728;42.266;24.944;2023-07-02T07:06:05;14.13;;;9.77;;
7375;SDS011;3728;42.266;24.944;2023-07-02T07:08:32;10.70;;;9.60;;
7375;SDS011;3728;42.266;24.944;2023-07-02T07:11:03;11.85;;;10.45;;
7375;SDS011;3728;42.266;24.944;2023-07-02T07:13:30;11.13;;;10.13;;
7375;SDS011;3728;42.266;24.944;2023-07-02T07:15:58;12.65;;;10.18;;
7375;SDS011;3728;42.266;24.944;2023-07-02T07:18:25;12.13;;;10.10;;
7375;SDS011;3728;42.266;24.944;2023-07-02T07:20:57;10.13;;;9.07;;
7375;SDS011;3728;42.266;24.944;2023-07-02T07:23:24;10.65;;;9.57;;
7375;SDS011;3728;42.266;24.944;2023-07-02T07:25:52;10.27;;;9.30;;
7375;SDS011;3728;42.266;24.944;2023-07-02T07:28:20;10.25;;;9.35;;
7375;SDS011;3728;42.266;24.944;2023-07-02T07:30:48;11.32;;;9.65;;
7375;SDS011;3728;42.266;24.944;2023-07-02T07:33:16;10.25;;;9.25;;
7375;SDS011;3728;42.266;24.944;2023-07-02T07:35:43;10.02;;;9.13;;
7375;SDS011;3728;42.266;24.944;2023-07-02T07:38:12;9.57;;;8.68;;
7375;SDS011;3728;42.266;24.944;2023-07-02T07:40:44;10.50;;;8.90;;
7375;SDS011;3728;42.266;24.944;2023-07-02T07:43:14;9.27;;;8.38;;
7375;SDS011;3728;42.266;24.944;2023-07-02T07:45:43;9.18;;;8.23;;
7375;SDS011;3728;42.266;24.944;2023-07-02T07:48:10;11.65;;;9.40;;
7375;SDS011;3728;42.266;24.944;2023-07-02T07:50:38;9.73;;;8.10;;
7375;SDS011;3728;42.266;24.944;2023-07-02T07:53:05;9.50;;;8.60;;
7375;SDS011;3728;42.266;24.944;2023-07-02T07:55:33;9.02;;;8.13;;
7375;SDS011;3728;42.266;24.944;2023-07-02T07:58:01;9.38;;;8.48;;
7375;SDS011;3728;42.266;24.944;2023-07-02T08:00:28;8.80;;;7.90;;
7375;SDS011;3728;42.266;24.944;2023-07-02T08:02:56;11.65;;;8.48;;
7375;SDS011;3728;42.266;24.944;2023-07-02T08:05:23;8.85;;;8.05;;
7375;SDS011;3728;42.266;24.944;2023-07-02T08:07:51;11.65;;;8.38;;
7375;SDS011;3728;42.266;24.944;2023-07-02T08:10:20;8.10;;;7.30;;
7375;SDS011;3728;42.266;24.944;2023-07-02T08:12:48;7.55;;;6.05;;
7375;SDS011;3728;42.266;24.944;2023-07-02T08:15:18;8.07;;;5.95;;
7375;SDS011;3728;42.266;24.944;2023-07-02T08:17:46;7.63;;;6.40;;
7375;SDS011;3728;42.266;24.944;2023-07-02T08:20:14;7.20;;;6.20;;
7375;SDS011;3728;42.266;24.944;2023-07-02T08:22:43;6.78;;;5.82;;
7375;SDS011;3728;42.266;24.944;2023-07-02T08:25:10;6.78;;;6.28;;
7375;SDS011;3728;42.266;24.944;2023-07-02T08:27:38;8.18;;;6.25;;
7375;SDS011;3728;42.266;24.944;2023-07-02T08:30:09;6.45;;;5.80;;
7375;SDS011;3728;42.266;24.944;2023-07-02T08:32:38;7.68;;;5.97;;
7375;SDS011;3728;42.266;24.944;2023-07-02T08:35:06;9.07;;;5.50;;
7375;SDS011;3728;42.266;24.944;2023-07-02T08:37:34;9.57;;;5.55;;
7375;SDS011;3728;42.266;24.944;2023-07-02T08:40:17;5.70;;;5.15;;
7375;SDS011;3728;42.266;24.944;2023-07-02T08:42:46;6.32;;;5.72;;
7375;SDS011;3728;42.266;24.944;2023-07-02T08:45:14;5.85;;;5.35;;
7375;SDS011;3728;42.266;24.944;2023-07-02T08:47:43;7.63;;;6.28;;
7375;SDS011;3728;42.266;24.944;2023-07-02T08:50:12;7.30;;;5.70;;
7375;SDS011;3728;42.266;24.944;2023-07-02T08:52:40;6.90;;;5.43;;
7375;SDS011;3728;42.266;24.944;2023-07-02T08:55:12;6.13;;;5.53;;
7375;SDS011;3728;42.266;24.944;2023-07-02T08:57:40;10.85;;;9.38;;
7375;SDS011;3728;42.266;24.944;2023-07-02T09:00:21;12.13;;;8.68;;
7375;SDS011;3728;42.266;24.944;2023-07-02T09:02:49;7.90;;;5.80;;
7375;SDS011;3728;42.266;24.944;2023-07-02T09:05:16;8.48;;;7.63;;
7375;SDS011;3728;42.266;24.944;2023-07-02T09:07:48;12.15;;;9.82;;
7375;SDS011;3728;42.266;24.944;2023-07-02T09:10:26;6.25;;;5.65;;
7375;SDS011;3728;42.266;24.944;2023-07-02T09:13:05;7.97;;;5.55;;
7375;SDS011;3728;42.266;24.944;2023-07-02T09:18:14;7.45;;;5.88;;
7375;SDS011;3728;42.266;24.944;2023-07-02T09:20:45;6.45;;;5.40;;
7375;SDS011;3728;42.266;24.944;2023-07-02T09:23:17;6.80;;;5.50;;
7375;SDS011;3728;42.266;24.944;2023-07-02T09:25:44;8.38;;;6.00;;
7375;SDS011;3728;42.266;24.944;2023-07-02T09:28:16;7.15;;;5.70;;
7375;SDS011;3728;42.266;24.944;2023-07-02T09:30:51;7.82;;;5.78;;
7375;SDS011;3728;42.266;24.944;2023-07-02T09:33:27;9.40;;;5.32;;
7375;SDS011;3728;42.266;24.944;2023-07-02T09:35:58;6.95;;;5.65;;
7375;SDS011;3728;42.266;24.944;2023-07-02T09:38:26;7.35;;;5.80;;
7375;SDS011;3728;42.266;24.944;2023-07-02T09:40:53;10.85;;;6.13;;
7375;SDS011;3728;42.266;24.944;2023-07-02T09:43:22;6.13;;;5.53;;
7375;SDS011;3728;42.266;24.944;2023-07-02T09:45:52;6.60;;;5.88;;
7375;SDS011;3728;42.266;24.944;2023-07-02T09:48:23;9.35;;;6.38;;
7375;SDS011;3728;42.266;24.944;2023-07-02T09:50:53;6.00;;;5.40;;
7375;SDS011;3728;42.266;24.944;2023-07-02T09:53:23;8.82;;;6.43;;
7375;SDS011;3728;42.266;24.944;2023-07-02T09:55:52;6.97;;;5.57;;
7375;SDS011;3728;42.266;24.944;2023-07-02T09:58:20;6.78;;;6.15;;
7375;SDS011;3728;42.266;24.944;2023-07-02T10:00:48;7.50;;;5.68;;
7375;SDS011;3728;42.266;24.944;2023-07-02T10:03:27;5.75;;;5.05;;
7375;SDS011;3728;42.266;24.944;2023-07-02T10:06:05;6.43;;;5.63;;
7375;SDS011;3728;42.266;24.944;2023-07-02T10:08:34;8.20;;;6.07;;
7375;SDS011;3728;42.266;24.944;2023-07-02T10:11:11;8.02;;;5.57;;
7375;SDS011;3728;42.266;24.944;2023-07-02T10:13:39;6.38;;;5.70;;
7375;SDS011;3728;42.266;24.944;2023-07-02T10:16:08;6.95;;;6.22;;
7375;SDS011;3728;42.266;24.944;2023-07-02T10:18:35;7.72;;;5.57;;
7375;SDS011;3728;42.266;24.944;2023-07-02T10:21:21;6.28;;;5.47;;
7375;SDS011;3728;42.266;24.944;2023-07-02T10:23:49;8.55;;;5.32;;
7375;SDS011;3728;42.266;24.944;2023-07-02T10:26:17;8.98;;;5.53;;
7375;SDS011;3728;42.266;24.944;2023-07-02T10:28:58;6.57;;;5.50;;
7375;SDS011;3728;42.266;24.944;2023-07-02T10:31:27;7.20;;;5.40;;
7375;SDS011;3728;42.266;24.944;2023-07-02T10:33:54;7.13;;;6.13;;
7375;SDS011;3728;42.266;24.944;2023-07-02T10:36:43;6.75;;;5.63;;
7375;SDS011;3728;42.266;24.944;2023-07-02T10:39:14;6.15;;;5.55;;
7375;SDS011;3728;42.266;24.944;2023-07-02T10:41:41;6.95;;;6.25;;
7375;SDS011;3728;42.266;24.944;2023-07-02T10:44:09;8.48;;;6.35;;
7375;SDS011;3728;42.266;24.944;2023-07-02T10:46:44;10.27;;;6.53;;
7375;SDS011;3728;42.266;24.944;2023-07-02T10:49:16;14.48;;;7.13;;
7375;SDS011;3728;42.266;24.944;2023-07-02T10:51:56;8.82;;;6.95;;
7375;SDS011;3728;42.266;24.944;2023-07-02T10:54:40;9.57;;;6.40;;
7375;SDS011;3728;42.266;24.944;2023-07-02T10:57:14;7.38;;;6.68;;
7375;SDS011;3728;42.266;24.944;2023-07-02T10:59:50;12.30;;;7.22;;
7375;SDS011;3728;42.266;24.944;2023-07-02T11:02:18;7.57;;;6.88;;
7375;SDS011;3728;42.266;24.944;2023-07-02T11:04:45;8.65;;;7.05;;
7375;SDS011;3728;42.266;24.944;2023-07-02T11:07:17;9.25;;;7.55;;
7375;SDS011;3728;42.266;24.944;2023-07-02T11:09:50;8.90;;;7.30;;
7375;SDS011;3728;42.266;24.944;2023-07-02T11:12:26;7.72;;;6.30;;
7375;SDS011;3728;42.266;24.944;2023-07-02T11:15:06;10.77;;;6.93;;
7375;SDS011;3728;42.266;24.944;2023-07-02T11:17:36;10.20;;;6.90;;
7375;SDS011;3728;42.266;24.944;2023-07-02T11:20:09;10.77;;;7.57;;
7375;SDS011;3728;42.266;24.944;2023-07-02T11:22:40;7.88;;;7.00;;
7375;SDS011;3728;42.266;24.944;2023-07-02T11:25:18;14.98;;;7.63;;
7375;SDS011;3728;42.266;24.944;2023-07-02T11:27:46;7.80;;;7.00;;
7375;SDS011;3728;42.266;24.944;2023-07-02T11:30:14;8.93;;;7.05;;
7375;SDS011;3728;42.266;24.944;2023-07-02T11:32:48;8.23;;;6.88;;
7375;SDS011;3728;42.266;24.944;2023-07-02T11:35:19;8.88;;;6.22;;
7375;SDS011;3728;42.266;24.944;2023-07-02T11:38:09;8.55;;;6.88;;
7375;SDS011;3728;42.266;24.944;2023-07-02T11:40:37;9.65;;;6.95;;
7375;SDS011;3728;42.266;24.944;2023-07-02T11:43:06;9.15;;;6.55;;
7375;SDS011;3728;42.266;24.944;2023-07-02T11:45:34;8.02;;;6.60;;
7375;SDS011;3728;42.266;24.944;2023-07-02T11:48:04;6.53;;;5.93;;
7375;SDS011;3728;42.266;24.944;2023-07-02T11:50:32;8.15;;;6.55;;
7375;SDS011;3728;42.266;24.944;2023-07-02T11:53:02;7.38;;;6.68;;
7375;SDS011;3728;42.266;24.944;2023-07-02T11:55:30;7.47;;;6.32;;
7375;SDS011;3728;42.266;24.944;2023-07-02T11:58:04;7.97;;;6.65;;
7375;SDS011;3728;42.266;24.944;2023-07-02T12:00:31;12.52;;;6.18;;
7375;SDS011;3728;42.266;24.944;2023-07-02T12:02:59;6.65;;;5.35;;
7375;SDS011;3728;42.266;24.944;2023-07-02T12:05:28;7.35;;;5.45;;
7375;SDS011;3728;42.266;24.944;2023-07-02T12:07:55;5.93;;;5.43;;
7375;SDS011;3728;42.266;24.944;2023-07-02T12:10:23;6.38;;;5.35;;
7375;SDS011;3728;42.266;24.944;2023-07-02T12:12:52;6.03;;;5.43;;
7375;SDS011;3728;42.266;24.944;2023-07-02T12:15:20;5.60;;;5.05;;
7375;SDS011;3728;42.266;24.944;2023-07-02T12:17:48;14.27;;;5.63;;
7375;SDS011;3728;42.266;24.944;2023-07-02T12:20:15;8.20;;;5.40;;
7375;SDS011;3728;42.266;24.944;2023-07-02T12:22:43;6.90;;;5.22;;
7375;SDS011;3728;42.266;24.944;2023-07-02T12:25:12;6.60;;;4.57;;
7375;SDS011;3728;42.266;24.944;2023-07-02T12:27:40;5.47;;;4.80;;
7375;SDS011;3728;42.266;24.944;2023-07-02T12:30:08;10.90;;;5.00;;
7375;SDS011;3728;42.266;24.944;2023-07-02T12:32:38;4.95;;;4.43;;
7375;SDS011;3728;42.266;24.944;2023-07-02T12:35:07;5.47;;;4.90;;
7375;SDS011;3728;42.266;24.944;2023-07-02T12:37:35;5.43;;;4.93;;
7375;SDS011;3728;42.266;24.944;2023-07-02T12:40:09;5.45;;;4.93;;
7375;SDS011;3728;42.266;24.944;2023-07-02T12:42:40;7.93;;;5.22;;
7375;SDS011;3728;42.266;24.944;2023-07-02T12:45:09;7.75;;;5.05;;
7375;SDS011;3728;42.266;24.944;2023-07-02T12:47:40;6.57;;;5.45;;
7375;SDS011;3728;42.266;24.944;2023-07-02T12:50:13;5.65;;;5.07;;
7375;SDS011;3728;42.266;24.944;2023-07-02T12:52:42;6.13;;;5.28;;
7375;SDS011;3728;42.266;24.944;2023-07-02T12:55:10;6.03;;;5.10;;
7375;SDS011;3728;42.266;24.944;2023-07-02T12:57:37;7.78;;;4.85;;
7375;SDS011;3728;42.266;24.944;2023-07-02T13:00:05;4.85;;;4.38;;
7375;SDS011;3728;42.266;24.944;2023-07-02T13:02:35;6.00;;;5.00;;
7375;SDS011;3728;42.266;24.944;2023-07-02T13:05:19;6.60;;;5.25;;
7375;SDS011;3728;42.266;24.944;2023-07-02T13:07:50;5.80;;;5.20;;
7375;SDS011;3728;42.266;24.944;2023-07-02T13:10:18;6.20;;;5.60;;
7375;SDS011;3728;42.266;24.944;2023-07-02T13:12:58;6.97;;;5.43;;
7375;SDS011;3728;42.266;24.944;2023-07-02T13:15:48;8.82;;;5.68;;
7375;SDS011;3728;42.266;24.944;2023-07-02T13:18:18;6.10;;;5.50;;
7375;SDS011;3728;42.266;24.944;2023-07-02T13:20:50;14.55;;;6.20;;
7375;SDS011;3728;42.266;24.944;2023-07-02T13:23:32;6.60;;;5.90;;
7375;SDS011;3728;42.266;24.944;2023-07-02T13:26:04;8.20;;;6.63;;
7375;SDS011;3728;42.266;24.944;2023-07-02T13:28:37;8.25;;;6.20;;
7375;SDS011;3728;42.266;24.944;2023-07-02T13:31:10;10.40;;;6.50;;
7375;SDS011;3728;42.266;24.944;2023-07-02T13:33:39;6.82;;;6.18;;
7375;SDS011;3728;42.266;24.944;2023-07-02T13:36:11;6.70;;;6.10;;
7375;SDS011;3728;42.266;24.944;2023-07-02T13:38:43;7.03;;;5.88;;
7375;SDS011;3728;42.266;24.944;2023-07-02T13:41:18;6.88;;;6.10;;
7375;SDS011;3728;42.266;24.944;2023-07-02T13:43:52;9.10;;;5.57;;
7375;SDS011;3728;42.266;24.944;2023-07-02T13:46:23;7.18;;;5.75;;
7375;SDS011;3728;42.266;24.944;2023-07-02T13:48:55;8.45;;;6.63;;
7375;SDS011;3728;42.266;24.944;2023-07-02T13:51:31;6.63;;;5.50;;
7375;SDS011;3728;42.266;24.944;2023-07-02T13:54:02;8.82;;;6.43;;
7375;SDS011;3728;42.266;24.944;2023-07-02T13:56:33;6.68;;;5.97;;
7375;SDS011;3728;42.266;24.944;2023-07-02T13:59:03;7.70;;;5.47;;
7375;SDS011;3728;42.266;24.944;2023-07-02T14:01:33;6.35;;;5.60;;
7375;SDS011;3728;42.266;24.944;2023-07-02T14:04:02;7.80;;;6.00;;
7375;SDS011;3728;42.266;24.944;2023-07-02T14:06:31;7.60;;;5.97;;
7375;SDS011;3728;42.266;24.944;2023-07-02T14:09:05;6.82;;;5.90;;
7375;SDS011;3728;42.266;24.944;2023-07-02T14:11:36;7.10;;;5.15;;
7375;SDS011;3728;42.266;24.944;2023-07-02T14:14:12;6.93;;;5.22;;
7375;SDS011;3728;42.266;24.944;2023-07-02T14:16:44;5.53;;;5.03;;
7375;SDS011;3728;42.266;24.944;2023-07-02T14:19:15;7.78;;;5.60;;
7375;SDS011;3728;42.266;24.944;2023-07-02T14:21:44;8.38;;;5.47;;
7375;SDS011;3728;42.266;24.944;2023-07-02T14:24:13;7.28;;;5.88;;
7375;SDS011;3728;42.266;24.944;2023-07-02T14:26:42;7.32;;;5.68;;
7375;SDS011;3728;42.266;24.944;2023-07-02T14:29:11;7.10;;;6.40;;
7375;SDS011;3728;42.266;24.944;2023-07-02T14:31:41;11.20;;;6.10;;
7375;SDS011;3728;42.266;24.944;2023-07-02T14:34:09;9.07;;;6.88;;
7375;SDS011;3728;42.266;24.944;2023-07-02T14:36:39;7.43;;;5.95;;
7375;SDS011;3728;42.266;24.944;2023-07-02T14:39:08;40.80;;;11.75;;
7375;SDS011;3728;42.266;24.944;2023-07-02T14:41:37;7.05;;;5.93;;
7375;SDS011;3728;42.266;24.944;2023-07-02T14:44:06;7.10;;;6.18;;
7375;SDS011;3728;42.266;24.944;2023-07-02T14:46:33;7.28;;;6.10;;
7375;SDS011;3728;42.266;24.944;2023-07-02T14:49:01;7.13;;;5.85;;
7375;SDS011;3728;42.266;24.944;2023-07-02T14:51:29;6.13;;;5.45;;
7375;SDS011;3728;42.266;24.944;2023-07-02T14:53:57;8.10;;;6.18;;
7375;SDS011;3728;42.266;24.944;2023-07-02T14:56:27;7.63;;;5.88;;
7375;SDS011;3728;42.266;24.944;2023-07-02T14:58:58;8.27;;;5.15;;
7375;SDS011;3728;42.266;24.944;2023-07-02T15:01:27;8.38;;;6.07;;
7375;SDS011;3728;42.266;24.944;2023-07-02T15:03:58;6.93;;;6.22;;
7375;SDS011;3728;42.266;24.944;2023-07-02T15:06:27;8.05;;;5.68;;
7375;SDS011;3728;42.266;24.944;2023-07-02T15:08:57;7.85;;;5.90;;
7375;SDS011;3728;42.266;24.944;2023-07-02T15:11:25;8.13;;;6.20;;
7375;SDS011;3728;42.266;24.944;2023-07-02T15:13:54;8.85;;;6.43;;
7375;SDS011;3728;42.266;24.944;2023-07-02T15:16:26;7.30;;;6.10;;